createdAt,value
2022-08-03T00:05:37.379Z,1.95
2022-08-03T00:11:24.491Z,2.28
2022-08-03T00:17:11.441Z,2.38
2022-08-03T00:22:58.380Z,2.13
2022-08-03T00:28:45.106Z,2.20
2022-08-03T00:34:57.946Z,2.10
2022-08-03T00:40:39.330Z,1.67
2022-08-03T00:46:26.188Z,2.10
2022-08-03T00:52:14.021Z,3.22
2022-08-03T00:58:05.012Z,2.30
2022-08-03T01:03:51.838Z,2.25
2022-08-03T01:09:48.951Z,2.22
2022-08-03T01:15:45.811Z,2.30
2022-08-03T01:21:40.500Z,2.50
2022-08-03T01:28:05.222Z,2.78
2022-08-03T01:34:00.375Z,2.60
2022-08-03T01:39:49.131Z,3.88
2022-08-03T01:45:37.387Z,3.17
2022-08-03T01:51:24.279Z,3.13
2022-08-03T01:57:31.337Z,3.45
2022-08-03T02:03:20.203Z,3.85
2022-08-03T02:09:08.109Z,5.25
2022-08-03T02:14:57.031Z,6.22
2022-08-03T02:20:47.714Z,6.67
2022-08-03T02:26:38.514Z,6.45
2022-08-03T02:32:31.397Z,6.65
2022-08-03T02:38:21.229Z,7.38
2022-08-03T02:44:10.956Z,7.88
2022-08-03T02:49:59.884Z,7.68
2022-08-03T02:55:47.645Z,7.95
2022-08-03T03:01:34.394Z,8.45
2022-08-03T03:07:21.627Z,6.68
2022-08-03T03:13:09.689Z,6.40
2022-08-03T03:18:58.518Z,5.50
2022-08-03T03:24:47.357Z,5.93
2022-08-03T03:30:34.785Z,5.68
2022-08-03T03:36:21.653Z,6.57
2022-08-03T03:42:08.560Z,5.70
2022-08-03T03:47:55.330Z,5.70
2022-08-03T03:53:54.726Z,5.20
2022-08-03T03:59:43.609Z,5.45
2022-08-03T04:05:48.982Z,5.50
2022-08-03T04:11:43.747Z,5.50
2022-08-03T04:17:31.769Z,4.53
2022-08-03T04:23:22.361Z,4.45
2022-08-03T04:29:11.493Z,4.78
2022-08-03T04:34:58.390Z,4.95
2022-08-03T04:40:46.692Z,3.97
2022-08-03T04:46:37.058Z,4.40
2022-08-03T04:52:24.440Z,4.47
2022-08-03T04:58:12.610Z,4.68
2022-08-03T05:03:59.580Z,4.53
2022-08-03T05:09:50.620Z,4.38
2022-08-03T05:15:43.135Z,4.57
2022-08-03T05:21:41.663Z,6.53
2022-08-03T05:27:36.970Z,5.00
2022-08-03T05:33:23.718Z,4.47
2022-08-03T05:39:10.548Z,4.53
2022-08-03T05:44:57.391Z,4.47
2022-08-03T05:50:44.782Z,5.43
2022-08-03T05:56:31.880Z,5.43
2022-08-03T06:02:18.900Z,5.35
2022-08-03T06:08:06.062Z,5.13
2022-08-03T06:13:52.938Z,4.68
2022-08-03T06:19:40.031Z,4.32
2022-08-03T06:25:27.666Z,3.67
2022-08-03T06:31:14.562Z,3.28
2022-08-03T06:37:02.287Z,2.75
2022-08-03T06:42:53.496Z,2.65
2022-08-03T06:48:41.922Z,2.53
2022-08-03T06:54:30.203Z,2.30
2022-08-03T07:00:20.269Z,2.30
2022-08-03T07:06:07.690Z,1.85
2022-08-03T07:11:55.351Z,9.60
2022-08-03T07:17:42.192Z,1.63
2022-08-03T07:23:28.913Z,1.73
2022-08-03T07:29:18.177Z,1.50
2022-08-03T07:35:08.768Z,2.30
2022-08-03T07:41:11.068Z,2.10
2022-08-03T07:46:58.009Z,1.50
2022-08-03T07:52:47.982Z,1.80
2022-08-03T07:58:36.430Z,1.63
2022-08-03T08:04:23.834Z,1.80
2022-08-03T08:10:11.315Z,3.17
2022-08-03T08:15:58.213Z,0.82
2022-08-03T08:21:53.412Z,0.95
2022-08-03T08:28:29.459Z,1.10
2022-08-03T08:34:04.639Z,1.00
2022-08-03T08:39:59.536Z,1.42
2022-08-03T08:45:52.131Z,0.88
2022-08-03T08:58:01.633Z,0.70
2022-08-03T09:03:49.766Z,0.50
2022-08-03T09:10:11.872Z,0.50
2022-08-03T09:16:00.615Z,0.52
2022-08-03T09:22:17.626Z,0.47
2022-08-03T09:28:11.269Z,0.60
2022-08-03T09:34:01.297Z,0.60
2022-08-03T09:39:48.134Z,1.77
2022-08-03T09:45:36.853Z,0.80
2022-08-03T09:51:33.263Z,0.70
2022-08-03T09:57:31.924Z,0.45
2022-08-03T10:03:18.610Z,0.82
2022-08-03T10:09:09.657Z,0.60
2022-08-03T10:14:56.478Z,0.77
2022-08-03T10:20:54.541Z,0.50
2022-08-03T10:26:49.590Z,0.60
2022-08-03T10:32:57.529Z,0.50
2022-08-03T10:38:52.991Z,0.40
2022-08-03T10:44:42.391Z,0.28
2022-08-03T10:50:29.533Z,0.50
2022-08-03T10:56:54.670Z,0.60
2022-08-03T11:03:11.563Z,0.50
2022-08-03T11:09:10.901Z,0.85
2022-08-03T11:15:03.613Z,0.35
2022-08-03T11:20:50.378Z,0.40
2022-08-03T11:26:37.193Z,0.55
2022-08-03T11:32:46.846Z,0.80
2022-08-03T11:38:35.464Z,0.90
2022-08-03T11:44:41.544Z,0.65
2022-08-03T11:50:38.152Z,1.73
2022-08-03T11:56:25.694Z,0.55
2022-08-03T12:02:23.573Z,0.73
2022-08-03T12:08:33.088Z,0.40
2022-08-03T12:14:50.547Z,0.40
2022-08-03T12:20:35.220Z,0.50
2022-08-03T12:26:22.252Z,0.63
2022-08-03T12:32:14.793Z,0.40
2022-08-03T12:38:07.692Z,0.45
2022-08-03T12:43:55.176Z,0.15
2022-08-03T12:49:46.673Z,0.40
2022-08-03T12:55:57.901Z,0.53
2022-08-03T13:01:54.809Z,0.50
2022-08-03T13:07:54.541Z,0.57
2022-08-03T13:13:41.529Z,0.50
2022-08-03T13:19:28.493Z,0.40
2022-08-03T13:25:15.395Z,0.88
2022-08-03T13:31:02.523Z,0.50
2022-08-03T13:37:08.359Z,1.05
2022-08-03T13:42:56.455Z,0.68
2022-08-03T13:48:43.353Z,0.32
2022-08-03T13:54:30.826Z,0.68
2022-08-03T14:00:26.632Z,0.55
2022-08-03T14:06:16.032Z,0.60
2022-08-03T14:12:07.226Z,0.40
2022-08-03T14:17:58.793Z,0.82
2022-08-03T14:23:45.811Z,0.35
2022-08-03T14:29:32.671Z,0.60
2022-08-03T14:35:19.446Z,0.80
2022-08-03T14:41:12.068Z,1.00
2022-08-03T14:47:06.754Z,0.63
2022-08-03T14:52:53.796Z,0.85
2022-08-03T14:58:40.727Z,1.50
2022-08-03T15:04:30.055Z,0.70
2022-08-03T15:10:17.461Z,0.88
2022-08-03T15:16:04.702Z,1.00
2022-08-03T15:21:51.533Z,0.90
2022-08-03T15:28:03.941Z,1.30
2022-08-03T15:33:46.150Z,1.30
2022-08-03T15:39:33.358Z,1.20
2022-08-03T15:45:42.042Z,0.98
2022-08-03T15:51:28.887Z,0.80
2022-08-03T15:57:15.557Z,0.95
2022-08-03T16:03:02.429Z,0.90
2022-08-03T16:08:49.180Z,0.80
2022-08-03T16:14:46.848Z,0.68
2022-08-03T16:20:38.531Z,1.00
2022-08-03T16:26:28.656Z,0.80
2022-08-03T16:32:18.824Z,0.73
2022-08-03T16:38:09.757Z,0.80
2022-08-03T16:43:57.169Z,2.10
2022-08-03T16:49:55.210Z,0.50
2022-08-03T16:55:53.676Z,0.75
2022-08-03T17:01:41.281Z,0.90
2022-08-03T17:07:30.706Z,0.80
2022-08-03T17:13:22.984Z,0.77
2022-08-03T17:19:28.887Z,0.90
2022-08-03T17:25:21.763Z,1.35
2022-08-03T17:31:31.826Z,0.70
2022-08-03T17:37:50.577Z,1.05
2022-08-03T17:44:13.761Z,0.80
2022-08-03T17:49:40.013Z,1.10
2022-08-03T17:55:56.382Z,1.52
2022-08-03T18:02:12.208Z,1.25
2022-08-03T18:08:11.682Z,1.00
2022-08-03T18:14:20.637Z,1.48
2022-08-03T18:20:34.341Z,1.10
2022-08-03T18:26:20.934Z,1.00
2022-08-03T18:32:13.705Z,1.20
2022-08-03T18:38:05.976Z,1.25
2022-08-03T18:44:06.999Z,1.15
2022-08-03T18:50:26.354Z,1.30
2022-08-03T18:56:22.267Z,1.60
2022-08-03T19:02:32.196Z,1.08
2022-08-03T19:08:36.970Z,1.27
2022-08-03T19:14:34.866Z,1.20
2022-08-03T19:20:26.562Z,3.20
2022-08-03T19:26:29.878Z,1.52
2022-08-03T19:32:23.811Z,1.13
2022-08-03T19:38:11.461Z,1.10
2022-08-03T19:44:01.816Z,1.63
2022-08-03T19:50:05.736Z,1.02
2022-08-03T19:55:59.665Z,1.85
2022-08-03T20:01:50.247Z,1.45
2022-08-03T20:07:38.814Z,1.37
2022-08-03T20:13:28.342Z,1.73
2022-08-03T20:19:21.727Z,3.17
2022-08-03T20:25:11.415Z,1.50
2022-08-03T20:31:03.710Z,1.35
2022-08-03T20:36:55.360Z,1.13
2022-08-03T20:42:42.531Z,1.05
2022-08-03T20:48:36.076Z,1.42
2022-08-03T20:54:31.576Z,1.38
2022-08-03T21:00:27.111Z,1.05
2022-08-03T21:06:27.721Z,1.08
2022-08-03T21:12:27.462Z,1.27
2022-08-03T21:18:21.179Z,4.97
2022-08-03T21:24:12.879Z,1.00
2022-08-03T21:30:06.953Z,1.23
2022-08-03T21:35:59.212Z,1.30
2022-08-03T21:41:48.564Z,1.45
2022-08-03T21:47:56.142Z,1.42
2022-08-03T21:54:04.347Z,1.20
2022-08-03T21:59:56.589Z,1.20
2022-08-03T22:05:49.666Z,1.55
2022-08-03T22:11:37.616Z,1.20
2022-08-03T22:17:54.185Z,1.13
2022-08-03T22:23:44.554Z,1.40
2022-08-03T22:29:34.304Z,1.30
2022-08-03T22:35:24.238Z,1.25
2022-08-03T22:41:11.540Z,1.20
2022-08-03T22:47:01.113Z,2.38
2022-08-03T22:52:48.025Z,1.23
2022-08-03T22:58:40.573Z,1.85
2022-08-03T23:04:29.197Z,1.30
2022-08-03T23:10:16.292Z,1.25
2022-08-03T23:16:12.259Z,1.60
2022-08-03T23:22:04.057Z,1.05
2022-08-03T23:28:05.026Z,1.52
2022-08-03T23:34:17.257Z,1.02
2022-08-03T23:40:09.963Z,0.95
2022-08-03T23:46:00.818Z,1.13
2022-08-03T23:52:01.886Z,1.20
2022-08-03T23:58:17.746Z,1.20
